createdAt,value
2023-01-30T02:43:03.653Z,593.00
2023-01-30T02:44:03.638Z,591.00
2023-01-30T02:45:03.643Z,584.00
2023-01-30T02:46:03.686Z,586.00
2023-01-30T02:47:03.638Z,586.00
2023-01-30T02:48:03.634Z,590.00
2023-01-30T02:49:03.690Z,586.00
2023-01-30T02:50:03.611Z,589.00
2023-01-30T02:51:03.612Z,593.00
2023-01-30T02:52:03.634Z,593.00
2023-01-30T02:53:03.598Z,588.00
2023-01-30T02:54:03.592Z,587.00
2023-01-30T02:55:03.583Z,587.00
2023-01-30T02:56:03.577Z,586.00
2023-01-30T02:57:04.057Z,588.00
2023-01-30T02:58:03.566Z,589.00
2023-01-30T02:59:03.564Z,589.00
2023-01-30T03:00:03.558Z,589.00
2023-01-30T03:01:03.691Z,590.00
2023-01-30T03:02:03.554Z,591.00
2023-01-30T03:03:03.546Z,592.00
2023-01-30T03:04:03.533Z,592.00
2023-01-30T03:05:04.054Z,589.00
2023-01-30T03:06:03.512Z,586.00
2023-01-30T03:07:03.518Z,583.00
2023-01-30T03:08:03.490Z,583.00
2023-01-30T03:09:03.498Z,583.00
2023-01-30T03:10:03.485Z,582.00
2023-01-30T03:11:03.512Z,581.00
2023-01-30T03:12:03.481Z,579.00
2023-01-30T03:13:03.479Z,580.00
2023-01-30T03:14:04.050Z,582.00
2023-01-30T03:15:03.463Z,582.00
2023-01-30T03:16:03.492Z,582.00
2023-01-30T03:17:03.456Z,583.00
2023-01-30T03:18:03.465Z,583.00
2023-01-30T03:19:03.443Z,582.00
2023-01-30T03:20:03.432Z,580.00
2023-01-30T03:21:03.437Z,580.00
2023-01-30T03:22:03.428Z,580.00
2023-01-30T03:23:03.421Z,581.00
2023-01-30T03:24:03.410Z,579.00
2023-01-30T03:25:03.397Z,578.00
2023-01-30T03:26:03.393Z,579.00
2023-01-30T03:27:03.379Z,577.00
2023-01-30T03:28:03.369Z,577.00
2023-01-30T03:29:03.374Z,576.00
2023-01-30T03:30:04.071Z,577.00
2023-01-30T03:31:03.440Z,577.00
2023-01-30T03:32:03.362Z,575.00
2023-01-30T03:33:03.333Z,577.00
2023-01-30T03:34:03.321Z,579.00
2023-01-30T03:35:03.327Z,579.00
2023-01-30T03:36:03.318Z,578.00
2023-01-30T03:37:03.309Z,578.00
2023-01-30T03:38:03.332Z,574.00
2023-01-30T03:39:03.301Z,572.00
2023-01-30T03:40:03.266Z,574.00
2023-01-30T03:41:03.277Z,573.00
2023-01-30T03:42:03.266Z,571.00
2023-01-30T03:43:03.252Z,571.00
2023-01-30T03:44:03.252Z,572.00
2023-01-30T03:45:03.246Z,573.00
2023-01-30T03:46:03.277Z,573.00
2023-01-30T03:47:03.234Z,573.00
2023-01-30T03:48:03.228Z,573.00
2023-01-30T03:49:03.236Z,573.00
2023-01-30T03:50:03.215Z,572.00
2023-01-30T03:51:03.207Z,570.00
2023-01-30T03:52:03.203Z,571.00
2023-01-30T03:53:03.190Z,571.00
2023-01-30T03:54:03.190Z,569.00
2023-01-30T03:55:03.247Z,567.00
2023-01-30T03:56:03.192Z,568.00
2023-01-30T03:57:03.144Z,566.00
2023-01-30T03:58:03.135Z,567.00
2023-01-30T03:59:03.131Z,567.00
2023-01-30T04:00:03.120Z,564.00
2023-01-30T04:01:03.215Z,564.00
2023-01-30T04:02:03.178Z,568.00
2023-01-30T04:03:03.075Z,569.00
2023-01-30T04:04:03.059Z,571.00
2023-01-30T04:05:03.042Z,570.00
2023-01-30T04:06:03.041Z,570.00
2023-01-30T04:07:03.042Z,573.00
2023-01-30T04:08:03.028Z,572.00
2023-01-30T04:09:03.016Z,572.00
2023-01-30T04:10:02.999Z,572.00
2023-01-30T04:11:03.072Z,575.00
2023-01-30T04:12:02.987Z,573.00
2023-01-30T04:13:02.969Z,572.00
2023-01-30T04:14:02.981Z,571.00
2023-01-30T04:15:02.952Z,573.00
2023-01-30T04:16:02.950Z,574.00
2023-01-30T04:17:03.674Z,572.00
2023-01-30T04:18:02.935Z,570.00
2023-01-30T04:19:02.919Z,571.00
2023-01-30T04:20:02.903Z,574.00
2023-01-30T04:21:02.930Z,574.00
2023-01-30T04:22:02.890Z,575.00
2023-01-30T04:23:02.896Z,575.00
2023-01-30T04:24:02.874Z,575.00
2023-01-30T04:25:02.858Z,573.00
2023-01-30T04:26:02.855Z,572.00
2023-01-30T04:27:02.830Z,570.00
2023-01-30T04:28:02.834Z,568.00
2023-01-30T04:29:03.615Z,567.00
2023-01-30T04:30:02.861Z,570.00
2023-01-30T04:31:02.848Z,570.00
2023-01-30T04:32:02.787Z,570.00
2023-01-30T04:33:02.751Z,570.00
2023-01-30T04:34:02.765Z,570.00
2023-01-30T04:35:02.750Z,570.00
2023-01-30T04:36:02.721Z,572.00
2023-01-30T04:37:02.703Z,572.00
2023-01-30T04:38:02.699Z,569.00
2023-01-30T04:39:02.683Z,569.00
2023-01-30T04:40:02.684Z,568.00
2023-01-30T04:41:02.668Z,567.00
2023-01-30T04:42:02.653Z,568.00
2023-01-30T04:43:02.643Z,567.00
2023-01-30T04:44:02.629Z,567.00
2023-01-30T04:45:03.105Z,566.00
2023-01-30T04:46:02.633Z,567.00
2023-01-30T04:47:02.603Z,568.00
2023-01-30T04:48:02.620Z,570.00
2023-01-30T04:49:02.582Z,569.00
2023-01-30T04:50:02.654Z,570.00
2023-01-30T04:51:02.547Z,570.00
2023-01-30T04:52:02.593Z,570.00
2023-01-30T04:53:02.534Z,566.00
2023-01-30T04:54:02.521Z,566.00
2023-01-30T04:55:02.512Z,566.00
2023-01-30T04:56:02.484Z,564.00
2023-01-30T04:57:02.475Z,566.00
2023-01-30T04:58:02.459Z,570.00
2023-01-30T04:59:02.445Z,569.00
2023-01-30T05:00:02.420Z,567.00
2023-01-30T05:01:02.577Z,568.00
2023-01-30T05:02:02.455Z,567.00
2023-01-30T05:03:02.389Z,569.00
2023-01-30T05:04:02.402Z,568.00
2023-01-30T05:05:02.377Z,566.00
2023-01-30T05:06:02.447Z,565.00
2023-01-30T05:07:02.373Z,567.00
2023-01-30T05:08:02.357Z,569.00
2023-01-30T05:09:02.356Z,569.00
2023-01-30T05:10:02.364Z,570.00
2023-01-30T05:11:02.363Z,567.00
2023-01-30T05:12:03.099Z,567.00
2023-01-30T05:14:02.209Z,566.00
2023-01-30T05:15:02.110Z,565.00
2023-01-30T05:16:02.018Z,562.00
2023-01-30T05:17:02.047Z,562.00
2023-01-30T05:18:01.863Z,564.00
2023-01-30T05:19:02.578Z,564.00
2023-01-30T05:20:01.721Z,567.00
2023-01-30T05:21:01.654Z,568.00
2023-01-30T05:22:01.615Z,569.00
2023-01-30T05:23:01.510Z,568.00
2023-01-30T05:24:01.437Z,565.00
2023-01-30T05:25:01.378Z,563.00
2023-01-30T05:26:01.325Z,563.00
2023-01-30T05:27:01.243Z,561.00
2023-01-30T05:28:01.174Z,562.00
2023-01-30T05:29:01.168Z,562.00
2023-01-30T05:30:01.120Z,564.00
2023-01-30T09:36:55.527Z,2475.00
2023-01-30T09:40:55.200Z,2609.00
2023-01-30T09:43:54.954Z,2650.00
2023-01-30T09:44:54.872Z,2705.00
2023-01-30T09:45:54.846Z,2693.00
2023-01-30T09:46:54.700Z,2706.00
2023-01-30T09:47:54.608Z,2751.00
2023-01-30T09:48:54.497Z,2856.00
2023-01-30T09:49:54.402Z,2876.00
2023-01-30T09:50:54.315Z,2880.00
2023-01-30T09:51:55.187Z,2896.00
2023-01-30T09:52:54.134Z,2907.00
2023-01-30T09:53:54.044Z,2936.00
2023-01-30T09:54:53.963Z,2956.00
2023-01-30T09:55:53.833Z,2974.00
2023-01-30T09:56:53.760Z,3025.00
2023-01-30T09:57:53.659Z,3043.00
2023-01-30T09:58:53.583Z,3063.00
2023-01-30T09:59:53.498Z,3082.00
2023-01-30T10:00:53.460Z,3113.00
2023-01-30T10:01:53.367Z,3214.00
2023-01-30T10:02:53.210Z,3227.00
2023-01-30T10:03:53.107Z,3232.00
2023-01-30T10:05:01.324Z,3256.00
2023-01-30T10:05:54.699Z,3308.00
2023-01-30T10:06:52.822Z,3343.00
2023-01-30T10:07:52.768Z,3416.00
2023-01-30T10:08:52.632Z,3452.00
2023-01-30T10:09:52.537Z,3466.00
2023-01-30T10:11:04.379Z,3507.00
2023-01-30T10:11:53.327Z,3538.00
2023-01-30T10:12:52.222Z,3547.00
2023-01-30T10:13:52.127Z,3556.00
2023-01-30T10:14:52.028Z,3588.00
2023-01-30T10:15:51.980Z,3609.00
2023-01-30T10:16:51.856Z,3636.00
2023-01-30T10:17:51.762Z,3635.00
2023-01-30T10:18:53.225Z,3626.00
2023-01-30T10:19:51.564Z,3603.00
2023-01-30T10:20:51.547Z,3593.00
2023-01-30T10:21:51.384Z,3574.00
2023-01-30T10:22:51.295Z,3568.00
2023-01-30T10:23:51.193Z,3564.00
2023-01-30T10:24:51.099Z,3554.00
2023-01-30T10:37:51.224Z,3491.00
2023-01-30T11:31:47.233Z,3228.00
2023-01-30T11:44:46.100Z,3164.00
2023-01-30T11:45:46.045Z,3161.00
2023-01-30T11:46:45.915Z,3158.00
2023-01-30T11:47:56.669Z,3156.00
2023-01-30T11:49:47.224Z,3138.00
2023-01-30T11:51:45.378Z,3138.00
2023-01-30T11:52:45.257Z,3133.00
2023-01-30T11:53:45.226Z,3129.00
2023-01-30T11:54:45.037Z,3124.00
2023-01-30T11:56:00.395Z,3118.00
2023-01-30T11:56:45.823Z,3116.00
2023-01-30T11:57:44.747Z,3108.00
2023-01-30T11:58:44.604Z,3103.00
2023-01-30T11:59:44.528Z,3095.00
2023-01-30T12:00:44.398Z,3094.00
2023-01-30T12:01:44.380Z,3089.00
2023-01-30T12:02:44.267Z,3085.00
2023-01-30T12:03:44.157Z,3080.00
2023-01-30T12:04:43.952Z,3070.00
2023-01-30T12:05:43.863Z,3064.00
2023-01-30T12:06:43.744Z,3063.00
2023-01-30T12:07:43.626Z,3054.00
2023-01-30T12:08:43.503Z,3051.00
2023-01-30T12:09:43.400Z,3045.00
2023-01-30T12:10:43.308Z,3042.00
2023-01-30T12:11:43.184Z,3035.00
2023-01-30T12:12:43.060Z,3029.00
2023-01-30T12:13:42.936Z,3028.00
2023-01-30T12:14:44.993Z,3025.00
2023-01-30T12:15:42.723Z,3019.00
2023-01-30T12:16:42.651Z,3014.00
2023-01-30T12:17:42.498Z,3006.00
2023-01-30T12:18:42.391Z,3000.00
2023-01-30T12:19:42.325Z,2992.00
2023-01-30T12:20:42.143Z,2981.00
2023-01-30T12:21:42.032Z,2973.00
2023-01-30T12:22:41.924Z,2967.00
2023-01-30T12:23:41.809Z,2964.00
2023-01-30T12:24:41.683Z,2958.00
2023-01-30T12:25:41.565Z,2956.00
2023-01-30T12:26:41.508Z,2951.00
2023-01-30T12:27:41.416Z,2946.00
2023-01-30T12:30:40.977Z,2937.00
2023-01-30T12:32:40.750Z,2921.00
2023-01-30T12:33:40.647Z,2908.00
2023-01-30T12:55:38.152Z,2770.00
2023-01-30T12:56:38.098Z,2762.00
2023-01-30T12:57:38.047Z,2753.00
2023-01-30T12:58:37.978Z,2750.00
2023-01-30T12:59:37.913Z,2748.00
2023-01-30T13:00:37.874Z,2747.00
2023-01-30T13:01:38.809Z,2737.00
2023-01-30T13:02:37.759Z,2734.00
2023-01-30T13:03:37.673Z,2729.00
2023-01-30T13:04:43.036Z,2721.00
2023-01-30T13:05:38.505Z,2718.00
2023-01-30T13:06:37.367Z,2716.00
2023-01-30T13:07:37.249Z,2714.00
2023-01-30T13:08:37.218Z,2708.00
2023-01-30T13:09:37.013Z,2707.00
2023-01-30T13:10:36.907Z,2698.00
2023-01-30T13:11:36.761Z,2688.00
2023-01-30T13:13:36.503Z,2680.00
2023-01-30T13:14:36.443Z,2680.00
2023-01-30T13:15:36.358Z,2676.00
2023-01-30T13:16:36.441Z,2670.00
2023-01-30T13:17:36.315Z,2666.00
2023-01-30T13:18:36.144Z,2659.00
2023-01-30T13:19:41.042Z,2654.00
2023-01-30T13:20:35.960Z,2654.00
2023-01-30T13:21:35.836Z,2654.00
2023-01-30T13:22:35.738Z,2650.00
2023-01-30T13:23:35.667Z,2648.00
2023-01-30T13:24:35.591Z,2647.00
2023-01-30T13:25:35.572Z,2639.00
2023-01-30T13:26:35.574Z,2633.00
2023-01-30T13:27:35.395Z,2633.00
2023-01-30T13:28:35.332Z,2629.00
2023-01-30T13:29:35.262Z,2625.00
2023-01-30T13:30:35.201Z,2619.00
2023-01-30T13:31:35.199Z,2615.00
2023-01-30T13:32:35.153Z,2610.00
2023-01-30T13:33:35.019Z,2611.00
2023-01-30T13:34:34.958Z,2601.00
2023-01-30T13:35:34.905Z,2598.00
2023-01-30T13:36:34.847Z,2585.00
2023-01-30T13:37:34.802Z,2579.00
2023-01-30T13:38:34.740Z,2575.00
2023-01-30T13:39:34.684Z,2564.00
2023-01-30T13:40:34.636Z,2555.00
2023-01-30T13:41:34.540Z,2551.00
2023-01-30T13:42:34.545Z,2558.00
2023-01-30T14:06:32.255Z,2442.00
2023-01-30T14:18:31.637Z,2416.00
2023-01-30T14:19:31.599Z,2417.00
2023-01-30T14:20:31.561Z,2413.00
2023-01-30T14:21:31.535Z,2406.00
2023-01-30T14:22:31.518Z,2398.00
2023-01-30T14:24:31.481Z,2392.00
2023-01-30T17:00:25.351Z,1994.00
2023-01-30T17:01:25.413Z,1989.00
2023-01-30T17:02:25.254Z,1984.00
2023-01-30T17:03:25.225Z,1981.00
2023-01-30T17:04:25.140Z,1977.00
2023-01-30T17:05:25.072Z,1973.00
2023-01-30T17:06:25.050Z,1973.00
2023-01-30T17:07:24.970Z,1971.00
2023-01-30T17:08:24.940Z,1971.00
2023-01-30T17:09:24.871Z,1969.00
2023-01-30T17:30:23.976Z,1933.00
2023-01-30T17:43:23.168Z,1903.00
2023-01-30T17:44:23.107Z,1901.00
2023-01-30T17:45:23.034Z,1897.00
2023-01-30T17:46:23.019Z,1896.00
2023-01-30T17:47:22.885Z,1896.00
2023-01-30T17:48:22.824Z,1898.00
2023-01-30T17:49:22.751Z,1900.00
2023-01-30T17:50:22.687Z,1902.00
2023-01-30T17:51:22.616Z,1898.00
2023-01-30T17:52:22.557Z,1892.00
2023-01-30T17:53:22.507Z,1882.00
2023-01-30T17:54:22.439Z,1880.00
2023-01-30T17:55:22.630Z,1883.00
2023-01-30T17:56:22.312Z,1881.00
2023-01-30T17:57:22.235Z,1875.00
2023-01-30T17:58:22.174Z,1878.00
2023-01-30T17:59:22.109Z,1875.00
2023-01-30T18:00:22.391Z,1876.00
2023-01-30T18:01:22.031Z,1878.00
2023-01-30T18:02:21.973Z,1881.00
2023-01-30T18:03:21.855Z,1878.00
2023-01-30T18:04:21.876Z,1876.00
2023-01-30T18:05:21.718Z,1874.00
2023-01-30T18:06:21.664Z,1873.00
2023-01-30T18:07:21.586Z,1872.00
2023-01-30T18:08:22.396Z,1867.00
2023-01-30T18:09:21.471Z,1865.00
2023-01-30T21:17:12.486Z,1669.00
2023-01-30T21:18:12.425Z,1666.00
2023-01-30T21:19:13.672Z,1664.00
2023-01-30T21:20:12.344Z,1659.00
2023-01-30T21:21:12.307Z,1659.00
2023-01-30T21:22:12.262Z,1656.00
2023-01-30T21:23:12.219Z,1657.00
2023-01-30T21:24:12.194Z,1661.00
2023-01-30T21:25:12.353Z,1658.00
2023-01-30T21:26:12.108Z,1656.00
2023-01-30T21:27:12.056Z,1655.00
2023-01-30T21:28:12.022Z,1661.00
2023-01-30T21:29:11.979Z,1661.00
2023-01-30T21:30:11.934Z,1659.00
2023-01-30T21:31:12.044Z,1659.00
2023-01-30T21:32:11.851Z,1659.00
2023-01-30T21:33:12.453Z,1658.00
2023-01-30T21:34:11.787Z,1658.00
2023-01-30T21:35:11.742Z,1655.00
2023-01-30T21:36:11.696Z,1649.00
2023-01-30T21:37:11.672Z,1641.00
2023-01-30T21:38:11.657Z,1642.00
2023-01-30T21:39:11.594Z,1638.00
2023-01-30T21:40:11.533Z,1636.00
2023-01-30T21:41:11.505Z,1637.00
2023-01-30T21:42:11.471Z,1636.00
2023-01-30T21:43:11.482Z,1633.00
2023-01-30T21:49:11.964Z,1629.00
2023-01-30T21:54:11.969Z,1628.00
2023-01-30T23:03:08.778Z,1566.00
2023-01-30T23:04:08.738Z,1566.00
2023-01-30T23:05:08.711Z,1559.00
2023-01-30T23:06:08.693Z,1557.00
2023-01-30T23:07:08.658Z,1555.00
2023-01-30T23:08:08.626Z,1553.00
2023-01-30T23:09:08.589Z,1555.00
2023-01-30T23:10:08.557Z,1556.00
2023-01-30T23:11:08.525Z,1557.00
2023-01-30T23:12:08.491Z,1560.00
2023-01-30T23:13:08.463Z,1559.00
2023-01-30T23:14:08.435Z,1557.00
2023-01-30T23:15:08.407Z,1553.00
2023-01-30T23:16:08.393Z,1548.00
2023-01-30T23:17:08.356Z,1545.00
2023-01-30T23:18:08.310Z,1544.00
2023-01-30T23:19:08.292Z,1542.00
2023-01-30T23:20:08.270Z,1538.00
2023-01-30T23:21:08.237Z,1539.00
2023-01-30T23:22:08.196Z,1539.00
2023-01-30T23:23:08.176Z,1539.00
2023-01-30T23:24:08.154Z,1536.00
2023-01-30T23:25:08.134Z,1538.00
2023-01-30T23:26:08.079Z,1535.00
2023-01-30T23:27:08.065Z,1532.00
2023-01-30T23:28:08.029Z,1533.00
2023-01-30T23:29:08.001Z,1538.00
2023-01-30T23:30:07.969Z,1540.00
2023-01-30T23:31:07.967Z,1539.00
2023-01-30T23:32:07.935Z,1537.00
2023-01-30T23:33:07.876Z,1534.00
2023-01-30T23:34:07.845Z,1535.00
2023-01-30T23:35:07.876Z,1532.00
2023-01-30T23:36:07.800Z,1528.00
2023-01-30T23:37:07.752Z,1529.00
2023-01-30T23:38:07.721Z,1528.00
2023-01-30T23:39:07.692Z,1525.00
2023-01-30T23:40:07.654Z,1523.00
2023-01-30T23:41:07.670Z,1521.00
2023-01-30T23:42:07.581Z,1518.00
2023-01-30T23:43:07.563Z,1518.00
2023-01-30T23:44:07.526Z,1516.00
2023-01-30T23:45:07.496Z,1521.00
2023-01-30T23:46:07.491Z,1519.00
2023-01-30T23:47:07.444Z,1520.00
2023-01-30T23:48:07.435Z,1516.00
2023-01-30T23:49:07.398Z,1514.00
2023-01-30T23:50:07.369Z,1512.00
2023-01-30T23:51:07.325Z,1513.00
2023-01-30T23:52:07.294Z,1515.00
2023-01-30T23:53:07.261Z,1515.00
2023-01-30T23:54:07.288Z,1516.00
2023-01-30T23:55:07.214Z,1517.00
2023-01-30T23:56:07.179Z,1517.00
2023-01-30T23:57:07.154Z,1516.00
2023-01-30T23:58:07.105Z,1509.00
2023-01-30T23:59:07.110Z,1507.00
